Time;durP1;ratioP1;P1;durP2;ratioP2;P2;SDS_P1;SDS_P2;PMS_P1;PMS_P2;Temp;Humidity;BMP_temperature;BMP_pressure;BME280_temperature;BME280_humidity;BME280_pressure;Samples;Min_cycle;Max_cycle;Signal;HPM_P1;HPM_P2
2022/09/27 00:00:22;;;;;;;25.50;12.90;;;;;;;;;;4988407;28;20440;-66
2022/09/27 00:02:48;;;;;;;39.58;17.73;;;;;;;;;;4988554;28;20428;-66
2022/09/27 00:05:14;;;;;;;26.30;13.05;;;;;;;;;;4990547;28;20475;-66
2022/09/27 00:07:39;;;;;;;26.13;12.75;;;;;;;;;;4990309;28;20515;-66
2022/09/27 00:10:05;;;;;;;28.83;13.43;;;;;;;;;;4987802;28;20464;-66
2022/09/27 00:12:30;;;;;;;26.08;11.63;;;;;;;;;;4988370;28;20317;-66
2022/09/27 00:14:56;;;;;;;25.45;12.48;;;;;;;;;;4987962;28;20351;-66
2022/09/27 00:17:21;;;;;;;20.67;11.13;;;;;;;;;;4988951;28;20095;-66
2022/09/27 00:19:46;;;;;;;24.23;12.13;;;;;;;;;;4988252;28;20440;-68
2022/09/27 00:22:12;;;;;;;22.65;11.52;;;;;;;;;;4988338;28;20352;-66
2022/09/27 00:24:37;;;;;;;24.20;11.27;;;;;;;;;;4989184;28;20171;-66
2022/09/27 00:27:02;;;;;;;21.30;11.23;;;;;;;;;;4988193;28;20340;-66
2022/09/27 00:29:28;;;;;;;19.33;10.70;;;;;;;;;;4987573;28;20064;-66
2022/09/27 00:31:53;;;;;;;22.38;11.43;;;;;;;;;;4988188;28;20352;-66
2022/09/27 00:34:21;;;;;;;18.50;10.13;;;;;;;;;;4987872;28;20507;-65
2022/09/27 00:36:47;;;;;;;22.42;9.38;;;;;;;;;;4987575;28;20029;-66
2022/09/27 00:39:13;;;;;;;21.17;11.05;;;;;;;;;;4987705;28;20440;-65
2022/09/27 00:41:39;;;;;;;20.60;10.25;;;;;;;;;;4989445;28;20332;-66
2022/09/27 00:44:32;;;;;;;19.60;10.20;;;;;;;;;;4986332;28;20336;-66
2022/09/27 00:47:13;;;;;;;20.98;10.25;;;;;;;;;;4988914;28;20047;-66
2022/09/27 00:49:52;;;;;;;18.75;9.60;;;;;;;;;;4987879;28;20505;-66
2022/09/27 00:52:24;;;;;;;18.88;10.07;;;;;;;;;;4987908;28;20054;-66
2022/09/27 00:54:52;;;;;;;26.38;13.00;;;;;;;;;;4986294;28;20352;-66
2022/09/27 00:57:18;;;;;;;23.40;10.73;;;;;;;;;;4969782;28;20344;-66
2022/09/27 00:59:47;;;;;;;20.75;9.90;;;;;;;;;;4986462;28;20422;-66
2022/09/27 01:02:13;;;;;;;20.00;10.18;;;;;;;;;;4979380;28;20463;-66
2022/09/27 01:04:39;;;;;;;14.57;8.48;;;;;;;;;;4981423;28;20463;-66
2022/09/27 01:07:05;;;;;;;20.20;9.77;;;;;;;;;;4985951;28;20446;-66
2022/09/27 01:09:30;;;;;;;20.90;9.40;;;;;;;;;;4987173;28;20540;-66
2022/09/27 01:12:11;;;;;;;16.67;8.50;;;;;;;;;;4987488;28;20502;-66
2022/09/27 01:15:04;;;;;;;17.02;9.25;;;;;;;;;;4988171;28;20396;-66
2022/09/27 01:17:51;;;;;;;26.95;11.93;;;;;;;;;;4988174;28;20062;-66
2022/09/27 01:20:30;;;;;;;22.17;11.25;;;;;;;;;;4985931;28;20029;-66
2022/09/27 01:23:20;;;;;;;21.90;10.80;;;;;;;;;;4985888;28;20066;-66
2022/09/27 01:25:48;;;;;;;19.92;9.25;;;;;;;;;;4987715;28;20063;-65
2022/09/27 01:28:37;;;;;;;17.33;9.47;;;;;;;;;;4988752;28;20391;-66
2022/09/27 01:31:20;;;;;;;14.00;8.27;;;;;;;;;;4985883;28;20516;-66
2022/09/27 01:33:57;;;;;;;17.77;8.95;;;;;;;;;;4987151;28;20440;-65
2022/09/27 01:36:33;;;;;;;20.42;9.73;;;;;;;;;;4987900;28;20173;-66
2022/09/27 01:39:11;;;;;;;15.70;8.38;;;;;;;;;;4985633;28;20471;-66
2022/09/27 01:41:54;;;;;;;17.70;8.68;;;;;;;;;;4987132;28;20364;-66
2022/09/27 01:44:28;;;;;;;18.23;8.55;;;;;;;;;;4987522;28;20058;-66
2022/09/27 01:46:57;;;;;;;23.33;11.32;;;;;;;;;;4985487;28;20351;-66
2022/09/27 01:49:32;;;;;;;21.75;10.43;;;;;;;;;;4988060;28;20459;-66
2022/09/27 01:52:00;;;;;;;28.02;11.90;;;;;;;;;;4990709;28;20406;-66
2022/09/27 01:54:39;;;;;;;21.40;10.07;;;;;;;;;;4989353;28;20305;-66
2022/09/27 01:57:07;;;;;;;17.52;9.57;;;;;;;;;;4989499;28;20410;-66
2022/09/27 01:59:42;;;;;;;18.05;9.38;;;;;;;;;;4989199;28;20397;-66
2022/09/27 02:02:08;;;;;;;20.85;9.35;;;;;;;;;;4989343;28;20453;-66
2022/09/27 02:04:35;;;;;;;19.77;9.27;;;;;;;;;;4989083;28;20458;-66
2022/09/27 02:07:17;;;;;;;18.02;8.65;;;;;;;;;;4990702;28;20455;-66
2022/09/27 02:10:25;;;;;;;17.27;8.57;;;;;;;;;;4988646;28;20053;-66
2022/09/27 02:12:57;;;;;;;13.65;7.57;;;;;;;;;;4958226;28;20333;-66
2022/09/27 02:15:25;;;;;;;18.33;8.27;;;;;;;;;;4989292;28;20455;-67
2022/09/27 02:18:02;;;;;;;17.08;9.55;;;;;;;;;;4990775;28;20378;-66
2022/09/27 02:20:39;;;;;;;16.38;8.55;;;;;;;;;;4990937;28;20436;-66
2022/09/27 02:23:14;;;;;;;14.38;8.38;;;;;;;;;;4989139;28;20452;-66
2022/09/27 02:25:46;;;;;;;15.77;7.60;;;;;;;;;;4989878;28;20428;-65
2022/09/27 02:28:24;;;;;;;12.32;7.10;;;;;;;;;;4988808;28;20459;-66
2022/09/27 02:30:49;;;;;;;19.25;7.88;;;;;;;;;;4988995;28;20094;-65
2022/09/27 02:33:15;;;;;;;14.13;8.15;;;;;;;;;;4988914;28;20464;-66
2022/09/27 02:35:40;;;;;;;13.48;7.10;;;;;;;;;;4990219;28;20325;-66
2022/09/27 02:38:06;;;;;;;14.82;7.93;;;;;;;;;;4992082;28;20357;-65
2022/09/27 02:40:34;;;;;;;14.43;8.70;;;;;;;;;;4989947;28;20355;-66
2022/09/27 02:43:02;;;;;;;11.90;7.30;;;;;;;;;;4989956;28;20530;-66
2022/09/27 02:45:51;;;;;;;12.70;7.10;;;;;;;;;;4988835;28;20324;-67
2022/09/27 02:48:48;;;;;;;19.17;8.18;;;;;;;;;;4959052;28;20344;-66
2022/09/27 02:51:17;;;;;;;17.58;8.23;;;;;;;;;;4989920;28;20473;-66
2022/09/27 02:53:57;;;;;;;;;;;;;;;;;;4988830;28;20339;-65
2022/09/27 02:56:27;;;;;;;17.45;7.82;;;;;;;;;;4991834;28;20270;-66
2022/09/27 02:59:13;;;;;;;18.60;8.93;;;;;;;;;;4990005;28;20428;-65
2022/09/27 03:02:04;;;;;;;17.55;8.43;;;;;;;;;;4988884;28;20495;-66
2022/09/27 03:04:37;;;;;;;13.73;7.18;;;;;;;;;;4990479;28;20025;-66
2022/09/27 03:07:03;;;;;;;13.00;7.15;;;;;;;;;;4988199;28;20414;-65
2022/09/27 03:09:39;;;;;;;10.98;6.72;;;;;;;;;;4988095;28;20453;-66
2022/09/27 03:12:04;;;;;;;10.75;6.50;;;;;;;;;;4988356;28;20442;-66
2022/09/27 03:14:30;;;;;;;11.50;6.68;;;;;;;;;;4989847;28;20374;-66
2022/09/27 03:16:55;;;;;;;13.25;7.20;;;;;;;;;;4991328;28;20367;-66
2022/09/27 03:19:20;;;;;;;11.80;6.18;;;;;;;;;;4989242;28;20514;-66
2022/09/27 03:21:46;;;;;;;12.95;6.72;;;;;;;;;;4989529;28;20383;-66
2022/09/27 03:24:11;;;;;;;9.70;5.90;;;;;;;;;;4989618;28;20383;-66
2022/09/27 03:26:36;;;;;;;10.43;5.82;;;;;;;;;;4989315;28;20052;-66
2022/09/27 03:29:02;;;;;;;10.30;5.97;;;;;;;;;;4989049;28;20455;-66
2022/09/27 03:31:27;;;;;;;15.80;6.57;;;;;;;;;;4989905;28;20570;-66
2022/09/27 03:33:52;;;;;;;9.30;5.25;;;;;;;;;;4990218;28;20047;-66
2022/09/27 03:36:18;;;;;;;12.10;6.25;;;;;;;;;;4989138;28;20052;-66
2022/09/27 03:38:43;;;;;;;12.45;5.93;;;;;;;;;;4991082;28;20442;-66
2022/09/27 03:41:08;;;;;;;10.27;5.53;;;;;;;;;;4990519;28;20066;-66
2022/09/27 03:43:34;;;;;;;9.68;5.53;;;;;;;;;;4988757;28;20344;-66
2022/09/27 03:46:00;;;;;;;10.73;6.18;;;;;;;;;;4989531;28;20371;-66
2022/09/27 03:48:25;;;;;;;9.15;5.35;;;;;;;;;;4987382;28;20502;-66
2022/09/27 03:50:50;;;;;;;7.82;5.25;;;;;;;;;;4988727;28;20435;-66
2022/09/27 03:53:16;;;;;;;9.13;5.47;;;;;;;;;;4988637;28;20428;-66
2022/09/27 03:55:44;;;;;;;11.02;5.90;;;;;;;;;;4989351;28;20451;-66
2022/09/27 03:58:10;;;;;;;11.80;7.13;;;;;;;;;;4987175;28;20363;-66
2022/09/27 04:00:36;;;;;;;9.63;6.05;;;;;;;;;;4988706;28;20427;-66
2022/09/27 04:03:01;;;;;;;10.88;6.35;;;;;;;;;;4990611;28;20323;-66
2022/09/27 04:05:27;;;;;;;10.25;5.82;;;;;;;;;;4988202;28;20463;-66
2022/09/27 04:07:53;;;;;;;8.88;5.45;;;;;;;;;;4989412;28;20293;-66
2022/09/27 04:10:18;;;;;;;9.43;6.18;;;;;;;;;;4987814;28;20356;-66
2022/09/27 04:12:44;;;;;;;9.60;5.95;;;;;;;;;;4988688;28;20430;-66
2022/09/27 04:15:10;;;;;;;8.23;5.68;;;;;;;;;;4986637;28;20017;-66
2022/09/27 04:17:35;;;;;;;9.60;5.65;;;;;;;;;;4988487;28;20495;-66
2022/09/27 04:20:02;;;;;;;8.95;5.65;;;;;;;;;;4988277;28;20488;-66
2022/09/27 04:22:28;;;;;;;9.57;5.30;;;;;;;;;;4988361;28;20444;-66
2022/09/27 04:24:54;;;;;;;10.05;6.00;;;;;;;;;;4986790;28;20504;-66
2022/09/27 04:27:21;;;;;;;11.82;5.25;;;;;;;;;;4988315;28;20463;-66
2022/09/27 04:29:47;;;;;;;8.82;5.40;;;;;;;;;;4986689;28;20443;-66
2022/09/27 04:32:12;;;;;;;7.75;5.03;;;;;;;;;;4988375;28;20455;-66
2022/09/27 04:37:21;;;;;;;10.13;4.95;;;;;;;;;;4988548;28;20118;-66
2022/09/27 04:39:49;;;;;;;10.70;5.72;;;;;;;;;;4989779;28;20482;-66
2022/09/27 04:42:15;;;;;;;11.40;4.55;;;;;;;;;;4986401;28;20462;-66
2022/09/27 04:44:41;;;;;;;10.95;5.35;;;;;;;;;;4988170;28;20321;-66
2022/09/27 04:47:06;;;;;;;11.43;5.78;;;;;;;;;;4988244;28;20343;-66
2022/09/27 04:49:31;;;;;;;9.32;5.55;;;;;;;;;;4987963;28;20094;-66
2022/09/27 04:51:57;;;;;;;8.77;4.95;;;;;;;;;;4989125;28;20052;-66
2022/09/27 04:54:22;;;;;;;10.35;5.63;;;;;;;;;;4987864;28;21636;-66
2022/09/27 04:56:48;;;;;;;10.82;6.07;;;;;;;;;;4987537;28;20420;-66
2022/09/27 04:59:13;;;;;;;9.02;5.30;;;;;;;;;;4986299;28;20055;-66
2022/09/27 05:01:39;;;;;;;8.63;5.28;;;;;;;;;;4985917;28;20455;-66
2022/09/27 05:04:05;;;;;;;8.98;5.03;;;;;;;;;;4987467;28;20439;-66
2022/09/27 05:06:30;;;;;;;10.27;6.10;;;;;;;;;;4987621;28;20467;-66
2022/09/27 05:08:57;;;;;;;8.02;4.90;;;;;;;;;;4986953;28;20458;-66
2022/09/27 05:11:22;;;;;;;10.50;5.25;;;;;;;;;;4987352;28;20062;-66
2022/09/27 05:13:49;;;;;;;8.10;5.40;;;;;;;;;;4987500;28;20497;-66
2022/09/27 05:16:14;;;;;;;8.50;5.38;;;;;;;;;;4988425;28;20450;-66
2022/09/27 05:18:40;;;;;;;9.63;5.45;;;;;;;;;;4987416;28;20431;-66
2022/09/27 05:21:05;;;;;;;8.02;5.20;;;;;;;;;;4987056;28;20439;-66
2022/09/27 05:23:31;;;;;;;8.57;5.32;;;;;;;;;;4988832;28;20432;-66
2022/09/27 05:25:56;;;;;;;11.05;5.45;;;;;;;;;;4991405;28;20404;-66
2022/09/27 05:28:23;;;;;;;8.10;5.30;;;;;;;;;;4991279;28;20498;-66
2022/09/27 05:30:48;;;;;;;7.55;4.78;;;;;;;;;;4989734;28;20574;-66
2022/09/27 05:33:14;;;;;;;9.20;5.30;;;;;;;;;;4991209;28;20451;-66
2022/09/27 05:35:41;;;;;;;9.02;5.50;;;;;;;;;;4992636;28;20511;-66
2022/09/27 05:38:06;;;;;;;8.52;4.78;;;;;;;;;;4991098;28;20355;-66
2022/09/27 05:40:32;;;;;;;9.15;5.28;;;;;;;;;;4991238;28;20037;-66
2022/09/27 05:42:57;;;;;;;7.68;4.65;;;;;;;;;;4990920;28;20347;-66
2022/09/27 05:45:23;;;;;;;7.95;4.65;;;;;;;;;;4989268;28;20052;-66
2022/09/27 05:47:56;;;;;;;8.48;5.07;;;;;;;;;;4990742;28;20344;-66
2022/09/27 05:50:23;;;;;;;9.88;4.93;;;;;;;;;;4989240;28;20037;-66
2022/09/27 05:52:48;;;;;;;8.80;5.03;;;;;;;;;;4990369;28;20346;-66
2022/09/27 05:55:14;;;;;;;6.03;4.45;;;;;;;;;;4989421;28;20352;-66
2022/09/27 05:57:39;;;;;;;6.40;4.47;;;;;;;;;;4991411;28;20369;-66
2022/09/27 06:00:05;;;;;;;5.45;3.80;;;;;;;;;;4990761;28;20435;-66
2022/09/27 06:02:31;;;;;;;5.93;3.58;;;;;;;;;;4989077;28;20383;-66
2022/09/27 06:04:56;;;;;;;7.38;4.32;;;;;;;;;;4990636;28;20348;-66
2022/09/27 06:07:21;;;;;;;6.25;3.85;;;;;;;;;;4992162;28;20017;-66
2022/09/27 06:09:47;;;;;;;6.32;3.88;;;;;;;;;;4990029;28;20383;-66
2022/09/27 06:12:13;;;;;;;7.65;4.30;;;;;;;;;;4991540;28;20040;-66
2022/09/27 06:14:39;;;;;;;7.60;4.80;;;;;;;;;;4991348;28;20017;-66
2022/09/27 06:17:04;;;;;;;6.38;4.00;;;;;;;;;;4990898;28;20392;-66
2022/09/27 06:19:30;;;;;;;6.70;4.15;;;;;;;;;;4991523;28;20340;-65
2022/09/27 06:21:55;;;;;;;8.27;4.45;;;;;;;;;;4990760;28;20462;-66
2022/09/27 06:24:20;;;;;;;6.13;3.97;;;;;;;;;;4990533;28;20464;-66
2022/09/27 06:26:47;;;;;;;5.18;3.55;;;;;;;;;;4990928;28;20506;-66
2022/09/27 06:29:12;;;;;;;5.68;3.90;;;;;;;;;;4990111;28;20474;-66
2022/09/27 06:31:37;;;;;;;5.45;3.65;;;;;;;;;;4990225;28;20339;-66
2022/09/27 06:34:03;;;;;;;5.18;3.35;;;;;;;;;;4989937;28;20105;-66
2022/09/27 06:36:28;;;;;;;5.80;4.10;;;;;;;;;;4988965;28;20393;-66
2022/09/27 06:38:53;;;;;;;6.28;3.65;;;;;;;;;;4989893;28;20080;-66
2022/09/27 06:41:19;;;;;;;4.88;3.50;;;;;;;;;;4991520;28;20497;-66
2022/09/27 06:43:44;;;;;;;5.90;3.58;;;;;;;;;;4989872;28;20386;-66
2022/09/27 06:46:10;;;;;;;10.57;4.00;;;;;;;;;;4990002;28;20436;-66
2022/09/27 06:48:38;;;;;;;6.55;3.75;;;;;;;;;;4989781;28;20343;-66
2022/09/27 06:51:04;;;;;;;4.60;3.20;;;;;;;;;;4990560;28;20327;-66
2022/09/27 06:53:29;;;;;;;4.60;3.05;;;;;;;;;;4988311;28;20065;-66
2022/09/27 06:55:59;;;;;;;5.30;3.30;;;;;;;;;;4988174;28;20029;-66
2022/09/27 07:01:09;;;;;;;5.43;3.40;;;;;;;;;;4989897;28;20415;-66
2022/09/27 07:03:38;;;;;;;6.05;3.60;;;;;;;;;;4989534;28;20387;-65
2022/09/27 07:06:05;;;;;;;7.63;3.72;;;;;;;;;;4989370;28;20359;-66
2022/09/27 07:08:31;;;;;;;5.63;3.55;;;;;;;;;;4988233;28;20390;-65
2022/09/27 07:11:04;;;;;;;7.20;3.67;;;;;;;;;;4990501;28;20448;-65
2022/09/27 07:13:31;;;;;;;5.53;3.40;;;;;;;;;;4989213;28;20519;-66
2022/09/27 07:15:57;;;;;;;6.25;3.22;;;;;;;;;;4989195;28;20391;-65
2022/09/27 07:18:22;;;;;;;5.68;3.33;;;;;;;;;;4989858;28;20419;-66
2022/09/27 07:20:49;;;;;;;5.47;3.35;;;;;;;;;;4989664;28;20336;-66
2022/09/27 07:23:15;;;;;;;8.35;3.78;;;;;;;;;;4989529;28;20451;-66
2022/09/27 07:25:41;;;;;;;5.70;3.60;;;;;;;;;;4989350;28;20466;-66
2022/09/27 07:28:09;;;;;;;5.85;3.60;;;;;;;;;;4989501;28;20024;-66
2022/09/27 07:30:36;;;;;;;4.95;3.42;;;;;;;;;;4988895;28;20482;-66
2022/09/27 07:33:03;;;;;;;5.43;3.55;;;;;;;;;;4990301;28;20368;-66
2022/09/27 07:35:29;;;;;;;5.10;3.17;;;;;;;;;;4990013;28;20463;-65
2022/09/27 07:37:55;;;;;;;6.03;2.97;;;;;;;;;;4988801;28;20499;-66
2022/09/27 07:40:21;;;;;;;5.60;3.00;;;;;;;;;;4988837;28;20456;-65
2022/09/27 07:42:46;;;;;;;5.30;3.00;;;;;;;;;;4989351;28;20566;-66
2022/09/27 07:45:12;;;;;;;4.65;3.50;;;;;;;;;;4988845;28;20542;-66
2022/09/27 07:47:39;;;;;;;7.55;2.95;;;;;;;;;;4988375;28;20041;-66
2022/09/27 07:50:05;;;;;;;3.67;2.75;;;;;;;;;;4988701;28;20435;-65
2022/09/27 07:52:41;;;;;;;4.53;2.70;;;;;;;;;;4989565;28;20469;-66
2022/09/27 07:55:08;;;;;;;4.20;2.83;;;;;;;;;;4988572;28;20436;-66
2022/09/27 07:57:33;;;;;;;5.55;3.20;;;;;;;;;;4988303;28;20048;-66
2022/09/27 07:59:59;;;;;;;5.32;3.20;;;;;;;;;;4989529;28;20569;-66
2022/09/27 08:02:24;;;;;;;4.88;3.28;;;;;;;;;;4986863;28;20390;-65
2022/09/27 08:04:50;;;;;;;5.28;3.00;;;;;;;;;;4987023;28;20428;-65
2022/09/27 08:07:15;;;;;;;4.88;3.03;;;;;;;;;;4988358;28;20408;-65
2022/09/27 08:09:41;;;;;;;4.03;2.78;;;;;;;;;;4987776;28;20456;-66
2022/09/27 08:12:07;;;;;;;4.10;3.00;;;;;;;;;;4989916;28;20051;-66
2022/09/27 08:14:32;;;;;;;4.00;2.72;;;;;;;;;;4990525;28;20388;-65
2022/09/27 08:16:57;;;;;;;6.50;3.03;;;;;;;;;;4988716;28;20083;-65
2022/09/27 08:19:24;;;;;;;3.28;2.50;;;;;;;;;;4989075;28;20459;-66
2022/09/27 08:21:51;;;;;;;4.82;2.40;;;;;;;;;;4988002;28;20340;-66
2022/09/27 08:24:16;;;;;;;3.42;2.42;;;;;;;;;;4988290;28;20451;-66
2022/09/27 08:26:41;;;;;;;3.67;2.33;;;;;;;;;;4988196;28;20435;-66
2022/09/27 08:29:07;;;;;;;5.82;3.22;;;;;;;;;;4987954;28;20432;-66
2022/09/27 08:31:32;;;;;;;4.90;3.45;;;;;;;;;;4987953;28;20112;-66
2022/09/27 08:33:57;;;;;;;4.40;2.95;;;;;;;;;;4988927;28;20463;-66
2022/09/27 08:36:23;;;;;;;3.53;2.70;;;;;;;;;;4988901;28;20025;-66
2022/09/27 08:38:49;;;;;;;4.55;2.90;;;;;;;;;;4988178;28;20374;-66
2022/09/27 08:41:39;;;;;;;3.85;2.42;;;;;;;;;;4987963;28;20431;-65
2022/09/27 08:44:20;;;;;;;3.90;2.60;;;;;;;;;;4949524;28;20521;-66
2022/09/27 08:47:01;;;;;;;4.93;2.63;;;;;;;;;;4988116;28;20352;-66
2022/09/27 08:49:38;;;;;;;4.07;3.00;;;;;;;;;;4989055;28;20300;-66
2022/09/27 08:52:31;;;;;;;3.83;2.60;;;;;;;;;;4987701;28;20529;-66
2022/09/27 08:54:57;;;;;;;4.40;2.88;;;;;;;;;;4987593;28;20482;-66
2022/09/27 08:57:24;;;;;;;4.72;2.70;;;;;;;;;;4987853;28;20052;-66
2022/09/27 09:00:01;;;;;;;3.92;2.17;;;;;;;;;;4986799;28;20037;-67
2022/09/27 09:02:26;;;;;;;3.75;2.53;;;;;;;;;;4987913;28;20423;-65
2022/09/27 09:05:14;;;;;;;4.03;2.72;;;;;;;;;;4987314;28;20432;-66
2022/09/27 09:07:55;;;;;;;4.28;2.83;;;;;;;;;;4985704;28;20343;-65
2022/09/27 09:13:42;;;;;;;3.38;2.20;;;;;;;;;;4987273;28;20379;-66
2022/09/27 09:16:27;;;;;;;4.53;2.80;;;;;;;;;;4987709;28;20428;-65
2022/09/27 09:19:28;;;;;;;3.30;2.17;;;;;;;;;;4970128;28;20375;-66
2022/09/27 09:21:58;;;;;;;3.33;2.30;;;;;;;;;;4888272;29;20443;-66
2022/09/27 09:24:29;;;;;;;3.47;2.10;;;;;;;;;;4970662;28;20325;-66
2022/09/27 09:27:21;;;;;;;3.97;2.05;;;;;;;;;;4987364;28;20427;-65
2022/09/27 09:30:01;;;;;;;3.42;2.65;;;;;;;;;;4987230;28;20340;-65
2022/09/27 09:32:45;;;;;;;5.40;2.42;;;;;;;;;;4988266;28;20443;-65
2022/09/27 09:35:15;;;;;;;4.55;2.63;;;;;;;;;;4987903;28;20420;-65
2022/09/27 09:37:46;;;;;;;3.55;2.00;;;;;;;;;;4969457;28;20419;-65
2022/09/27 09:40:19;;;;;;;3.80;2.65;;;;;;;;;;4987154;28;20358;-65
2022/09/27 09:42:51;;;;;;;2.95;2.42;;;;;;;;;;4987092;28;20395;-65
2022/09/27 09:45:21;;;;;;;3.30;2.05;;;;;;;;;;4969266;28;20459;-65
2022/09/27 09:47:54;;;;;;;3.83;2.15;;;;;;;;;;4969468;28;20033;-65
2022/09/27 09:50:27;;;;;;;2.80;2.17;;;;;;;;;;4987016;28;20038;-65
2022/09/27 09:52:58;;;;;;;4.18;2.33;;;;;;;;;;4987394;28;20499;-65
2022/09/27 09:55:27;;;;;;;3.78;2.30;;;;;;;;;;4969315;28;20530;-65
2022/09/27 09:58:11;;;;;;;3.60;2.10;;;;;;;;;;4969064;28;20502;-65
2022/09/27 10:00:38;;;;;;;2.92;2.00;;;;;;;;;;4987212;28;20444;-65
2022/09/27 10:03:03;;;;;;;2.95;2.17;;;;;;;;;;4969626;28;20352;-65
2022/09/27 10:05:29;;;;;;;3.58;2.20;;;;;;;;;;4989041;28;20059;-65
2022/09/27 10:07:57;;;;;;;2.50;1.85;;;;;;;;;;4969980;28;20399;-66
2022/09/27 10:10:23;;;;;;;3.75;2.13;;;;;;;;;;4959130;28;20480;-65
2022/09/27 10:12:50;;;;;;;2.83;1.92;;;;;;;;;;4972138;28;20417;-65
2022/09/27 10:15:18;;;;;;;2.72;2.00;;;;;;;;;;4970731;28;20380;-65
2022/09/27 10:17:49;;;;;;;3.42;2.10;;;;;;;;;;4970729;28;20483;-65
2022/09/27 10:20:36;;;;;;;3.28;2.25;;;;;;;;;;4953043;28;20452;-65
2022/09/27 10:23:14;;;;;;;3.08;1.88;;;;;;;;;;4952611;28;20475;-66
2022/09/27 10:25:48;;;;;;;3.83;2.35;;;;;;;;;;4953277;28;20033;-65
2022/09/27 10:28:33;;;;;;;2.63;1.80;;;;;;;;;;4952661;28;20416;-65
2022/09/27 10:31:13;;;;;;;3.33;2.20;;;;;;;;;;4970334;28;20487;-65
2022/09/27 10:33:52;;;;;;;3.28;2.17;;;;;;;;;;4952924;28;20420;-65
2022/09/27 10:36:25;;;;;;;2.85;2.10;;;;;;;;;;4970268;28;20378;-65
2022/09/27 10:38:53;;;;;;;2.92;1.77;;;;;;;;;;4970175;28;20033;-65
2022/09/27 10:41:27;;;;;;;1.98;1.60;;;;;;;;;;4970230;28;20059;-65
2022/09/27 10:43:53;;;;;;;2.17;1.80;;;;;;;;;;4952818;28;20546;-65
2022/09/27 10:46:25;;;;;;;2.42;1.85;;;;;;;;;;4971357;28;20511;-65
2022/09/27 10:49:25;;;;;;;3.00;1.80;;;;;;;;;;4952370;28;20467;-65
2022/09/27 10:51:53;;;;;;;3.10;2.10;;;;;;;;;;4970555;28;20373;-65
2022/09/27 10:54:21;;;;;;;2.08;1.67;;;;;;;;;;4969618;28;20310;-65
2022/09/27 10:56:55;;;;;;;18.75;2.85;;;;;;;;;;4951511;28;20504;-65
2022/09/27 10:59:21;;;;;;;9.25;2.28;;;;;;;;;;4952170;28;20479;-66
2022/09/27 11:01:49;;;;;;;20.60;3.20;;;;;;;;;;4969644;28;20444;-66
2022/09/27 11:04:35;;;;;;;10.97;3.17;;;;;;;;;;4970496;28;20452;-66
2022/09/27 11:07:18;;;;;;;17.42;3.05;;;;;;;;;;4952226;28;20341;-67
2022/09/27 11:10:18;;;;;;;12.98;2.50;;;;;;;;;;4976660;28;20445;-66
2022/09/27 11:12:44;;;;;;;9.98;2.17;;;;;;;;;;4971667;28;20029;-66
2022/09/27 11:15:15;;;;;;;9.25;1.73;;;;;;;;;;4990435;28;20490;-65
2022/09/27 11:18:28;;;;;;;13.25;2.72;;;;;;;;;;4990503;28;20432;-65
2022/09/27 11:21:13;;;;;;;9.70;1.80;;;;;;;;;;4942203;28;20470;-65
2022/09/27 11:24:02;;;;;;;5.63;2.35;;;;;;;;;;4988961;28;20052;-66
2022/09/27 11:26:47;;;;;;;8.95;2.17;;;;;;;;;;4977098;28;20352;-65
2022/09/27 11:29:44;;;;;;;8.63;1.65;;;;;;;;;;4988998;28;20478;-66
2022/09/27 11:32:21;;;;;;;6.40;2.55;;;;;;;;;;4988878;28;20442;-65
2022/09/27 11:35:04;;;;;;;6.95;1.70;;;;;;;;;;4989214;28;20523;-65
2022/09/27 11:37:33;;;;;;;9.45;1.85;;;;;;;;;;4988690;28;20021;-65
2022/09/27 11:39:58;;;;;;;;;;;;;;;;;;4971227;28;20025;-65
2022/09/27 11:43:02;;;;;;;5.20;1.70;;;;;;;;;;4988642;28;19983;-65
2022/09/27 11:45:58;;;;;;;7.18;2.05;;;;;;;;;;4907269;28;20711;-65
2022/09/27 11:48:34;;;;;;;6.13;1.80;;;;;;;;;;4988611;28;20620;-65
2022/09/27 11:51:27;;;;;;;15.10;1.95;;;;;;;;;;4971122;28;20460;-66
2022/09/27 11:53:55;;;;;;;4.97;1.55;;;;;;;;;;4989340;28;20406;-65
2022/09/27 11:56:26;;;;;;;5.63;2.40;;;;;;;;;;4990587;28;20320;-65
2022/09/27 11:58:58;;;;;;;5.00;1.58;;;;;;;;;;4970546;28;20340;-65
2022/09/27 12:01:49;;;;;;;9.18;2.60;;;;;;;;;;4988363;28;20202;-65
2022/09/27 12:04:27;;;;;;;4.47;1.50;;;;;;;;;;4970402;28;20032;-66
2022/09/27 12:07:30;;;;;;;3.10;1.33;;;;;;;;;;4988532;28;20375;-65
2022/09/27 12:10:00;;;;;;;2.45;1.70;;;;;;;;;;4996497;28;20041;-65
2022/09/27 12:12:28;;;;;;;8.32;1.67;;;;;;;;;;5007882;28;20414;-65
2022/09/27 12:14:58;;;;;;;1.73;1.20;;;;;;;;;;4990573;28;20431;-65
2022/09/27 12:17:30;;;;;;;4.18;1.45;;;;;;;;;;5007807;28;20029;-65
2022/09/27 12:20:03;;;;;;;5.53;1.48;;;;;;;;;;4989658;28;20093;-65
2022/09/27 12:22:56;;;;;;;2.15;1.25;;;;;;;;;;4989938;28;20051;-65
2022/09/27 12:25:23;;;;;;;3.13;1.60;;;;;;;;;;4990020;28;20582;-65
2022/09/27 12:27:53;;;;;;;3.97;2.42;;;;;;;;;;5008130;28;20416;-65
2022/09/27 12:30:18;;;;;;;3.22;1.60;;;;;;;;;;5007550;28;20468;-66
2022/09/27 12:32:53;;;;;;;3.60;1.23;;;;;;;;;;5007160;28;20431;-65
2022/09/27 12:35:28;;;;;;;2.03;1.30;;;;;;;;;;5008824;28;20347;-65
2022/09/27 12:38:14;;;;;;;6.05;1.67;;;;;;;;;;4989285;28;20467;-65
2022/09/27 12:40:43;;;;;;;3.25;1.60;;;;;;;;;;4989433;28;20409;-65
2022/09/27 12:43:28;;;;;;;3.60;1.45;;;;;;;;;;4989425;28;20423;-66
2022/09/27 12:46:08;;;;;;;2.08;1.40;;;;;;;;;;4989305;28;20439;-65
2022/09/27 12:48:39;;;;;;;1.67;1.50;;;;;;;;;;4989440;28;20039;-66
2022/09/27 12:51:18;;;;;;;2.70;1.67;;;;;;;;;;5008056;28;20455;-65
2022/09/27 12:53:53;;;;;;;4.47;1.35;;;;;;;;;;4989266;28;20417;-65
2022/09/27 12:56:27;;;;;;;2.50;1.30;;;;;;;;;;5007596;28;20514;-65
2022/09/27 12:59:01;;;;;;;2.08;1.45;;;;;;;;;;5007925;28;20451;-65
2022/09/27 13:01:54;;;;;;;1.83;1.55;;;;;;;;;;4989090;28;20032;-65
2022/09/27 13:04:44;;;;;;;2.35;1.38;;;;;;;;;;5007147;28;20446;-65
2022/09/27 13:07:12;;;;;;;5.07;1.65;;;;;;;;;;5007645;28;20029;-66
2022/09/27 13:10:00;;;;;;;3.03;1.30;;;;;;;;;;5006796;28;20463;-65
2022/09/27 13:12:28;;;;;;;3.55;1.55;;;;;;;;;;4989139;28;20447;-65
2022/09/27 13:15:00;;;;;;;2.50;1.50;;;;;;;;;;4989314;28;20366;-65
2022/09/27 13:17:43;;;;;;;3.08;1.88;;;;;;;;;;5006969;28;20032;-65
2022/09/27 13:20:27;;;;;;;2.15;1.60;;;;;;;;;;5007158;28;20561;-65
2022/09/27 13:22:53;;;;;;;1.85;1.30;;;;;;;;;;5007107;28;20486;-65
2022/09/27 13:25:46;;;;;;;1.77;1.15;;;;;;;;;;4988979;28;20408;-65
2022/09/27 13:28:35;;;;;;;2.78;1.63;;;;;;;;;;5007278;28;20465;-65
2022/09/27 13:31:13;;;;;;;3.15;1.38;;;;;;;;;;5006997;28;21097;-65
2022/09/27 13:33:46;;;;;;;2.03;1.38;;;;;;;;;;5004113;28;20037;-65
2022/09/27 13:36:25;;;;;;;3.53;1.58;;;;;;;;;;4644463;28;10002000;-65
2022/09/27 13:39:04;;;;;;;2.67;1.48;;;;;;;;;;5007339;28;20506;-65
2022/09/27 13:41:45;;;;;;;5.22;1.80;;;;;;;;;;4988960;28;20486;-65
2022/09/27 13:44:23;;;;;;;1.98;1.50;;;;;;;;;;5008838;28;20339;-65
2022/09/27 13:46:55;;;;;;;7.38;1.67;;;;;;;;;;5010866;28;20403;-65
2022/09/27 13:49:28;;;;;;;1.35;1.00;;;;;;;;;;5011300;28;20338;-65
2022/09/27 13:52:01;;;;;;;4.43;2.20;;;;;;;;;;5010609;28;20485;-65
2022/09/27 13:54:32;;;;;;;2.17;1.40;;;;;;;;;;5010601;28;20381;-65
2022/09/27 13:56:58;;;;;;;2.05;1.58;;;;;;;;;;5010575;28;20370;-65
2022/09/27 13:59:29;;;;;;;1.70;1.35;;;;;;;;;;5011113;28;20416;-65
2022/09/27 14:02:02;;;;;;;2.20;1.60;;;;;;;;;;5011120;28;20423;-65
2022/09/27 14:04:36;;;;;;;1.40;1.20;;;;;;;;;;4992468;28;20439;-65
2022/09/27 14:07:02;;;;;;;2.13;1.63;;;;;;;;;;5010293;28;20477;-65
2022/09/27 14:09:37;;;;;;;1.38;1.15;;;;;;;;;;5010656;28;20048;-65
2022/09/27 14:12:11;;;;;;;4.00;1.48;;;;;;;;;;5010124;28;20467;-65
2022/09/27 14:14:37;;;;;;;2.22;1.33;;;;;;;;;;5011149;28;20448;-65
2022/09/27 14:17:06;;;;;;;2.33;1.40;;;;;;;;;;4975789;28;20377;-65
2022/09/27 14:19:32;;;;;;;2.05;1.40;;;;;;;;;;5010128;28;20401;-65
2022/09/27 14:21:57;;;;;;;3.63;1.38;;;;;;;;;;5010000;28;20086;-66
2022/09/27 14:24:25;;;;;;;1.95;1.40;;;;;;;;;;4992189;28;20449;-65
2022/09/27 14:27:19;;;;;;;2.72;1.63;;;;;;;;;;5010086;28;20028;-66
2022/09/27 14:29:55;;;;;;;3.65;1.33;;;;;;;;;;4992022;28;20036;-66
2022/09/27 14:32:32;;;;;;;1.52;1.20;;;;;;;;;;5009943;28;20464;-66
2022/09/27 14:38:01;;;;;;;3.03;1.88;;;;;;;;;;5009799;28;20566;-66
2022/09/27 14:40:26;;;;;;;3.45;1.90;;;;;;;;;;4992034;28;20111;-66
2022/09/27 14:42:57;;;;;;;1.42;1.33;;;;;;;;;;4991752;28;20046;-65
2022/09/27 14:45:50;;;;;;;2.78;1.63;;;;;;;;;;5009558;28;20044;-66
2022/09/27 14:48:38;;;;;;;2.70;1.80;;;;;;;;;;4987625;28;20355;-66
2022/09/27 14:51:18;;;;;;;3.33;1.50;;;;;;;;;;5010037;28;20465;-65
2022/09/27 14:53:43;;;;;;;2.03;1.52;;;;;;;;;;4992559;28;20462;-65
2022/09/27 14:56:16;;;;;;;2.88;1.65;;;;;;;;;;5010744;28;20523;-65
2022/09/27 14:58:44;;;;;;;2.78;1.48;;;;;;;;;;4977048;28;20350;-65
2022/09/27 15:01:15;;;;;;;2.67;1.30;;;;;;;;;;5009413;28;20354;-65
2022/09/27 15:03:41;;;;;;;1.35;1.23;;;;;;;;;;4974925;28;20394;-65
2022/09/27 15:06:07;;;;;;;3.03;1.73;;;;;;;;;;5009320;28;20051;-65
2022/09/27 15:08:33;;;;;;;2.50;1.85;;;;;;;;;;5009227;28;20444;-65
2022/09/27 15:11:00;;;;;;;3.03;1.63;;;;;;;;;;5010433;28;20466;-65
2022/09/27 15:13:25;;;;;;;2.95;1.58;;;;;;;;;;5009545;28;20461;-65
2022/09/27 15:15:51;;;;;;;3.35;1.70;;;;;;;;;;4992410;28;20442;-66